Time;durP1;ratioP1;P1;durP2;ratioP2;P2;SDS_P1;SDS_P2;PMS_P1;PMS_P2;Temp;Humidity;BMP_temperature;BMP_pressure;BME280_temperature;BME280_humidity;BME280_pressure;Samples;Min_cycle;Max_cycle;Signal;HPM_P1;HPM_P2
2023/05/21 00:00:50;;;;;;;15.60;11.15;;;16.80;99.90;;;;;;5028540;28;20060;-49
2023/05/21 00:03:16;;;;;;;15.70;12.32;;;16.80;99.90;;;;;;5033899;28;20106;-51
2023/05/21 00:05:46;;;;;;;16.47;11.93;;;16.80;99.90;;;;;;5032118;28;20033;-52
2023/05/21 00:08:13;;;;;;;17.85;11.20;;;16.80;99.90;;;;;;5026609;28;20069;-54
2023/05/21 00:10:38;;;;;;;13.25;10.95;;;16.80;99.90;;;;;;5014761;28;20124;-53
2023/05/21 00:13:04;;;;;;;14.20;11.40;;;16.80;99.90;;;;;;5029754;28;20130;-47
2023/05/21 00:15:30;;;;;;;12.50;10.75;;;16.70;99.90;;;;;;5029672;28;20026;-53
2023/05/21 00:17:55;;;;;;;16.05;12.18;;;16.80;99.90;;;;;;5017850;28;20029;-48
2023/05/21 00:20:22;;;;;;;15.30;11.02;;;16.70;99.90;;;;;;5030825;28;20785;-48
2023/05/21 00:22:47;;;;;;;15.05;11.30;;;16.80;99.90;;;;;;5027014;28;20495;-50
2023/05/21 00:25:13;;;;;;;16.58;11.52;;;16.80;99.90;;;;;;5030169;28;20025;-49
2023/05/21 00:27:39;;;;;;;14.30;11.25;;;16.80;99.90;;;;;;5015930;28;20095;-50
2023/05/21 00:30:05;;;;;;;17.77;12.15;;;16.80;99.90;;;;;;5031574;28;20033;-51
2023/05/21 00:32:31;;;;;;;18.13;13.32;;;16.80;99.90;;;;;;5013205;28;20037;-49
2023/05/21 00:34:57;;;;;;;16.05;12.07;;;16.70;99.90;;;;;;5013720;28;20026;-53
2023/05/21 00:37:23;;;;;;;16.35;12.30;;;16.70;99.90;;;;;;5023299;28;20049;-52
2023/05/21 00:39:49;;;;;;;18.35;12.63;;;16.60;99.90;;;;;;5031460;28;20029;-52
2023/05/21 00:42:17;;;;;;;16.45;12.38;;;16.60;99.90;;;;;;5033013;28;20468;-51
2023/05/21 00:44:44;;;;;;;16.45;11.52;;;16.60;99.90;;;;;;5032989;28;20033;-46
2023/05/21 00:47:11;;;;;;;15.77;12.27;;;16.60;99.90;;;;;;5016108;28;20033;-50
2023/05/21 00:49:37;;;;;;;;;;;16.60;99.90;;;;;;5016329;28;20034;-54
2023/05/21 00:52:02;;;;;;;15.55;12.57;;;16.60;99.90;;;;;;5014981;28;19995;-51
2023/05/21 00:54:29;;;;;;;17.13;11.95;;;16.50;99.90;;;;;;5011928;28;20123;-48
2023/05/21 00:56:55;;;;;;;21.88;12.00;;;16.60;99.90;;;;;;5013199;28;20025;-52
2023/05/21 00:59:22;;;;;;;14.60;12.55;;;16.60;99.90;;;;;;5027299;28;20022;-52
2023/05/21 01:01:54;;;;;;;22.52;12.73;;;16.60;99.90;;;;;;5017888;28;20076;-54
2023/05/21 01:04:21;;;;;;;19.98;13.15;;;16.60;99.90;;;;;;5031534;28;20087;-49
2023/05/21 01:06:47;;;;;;;19.73;13.13;;;16.60;99.90;;;;;;5026818;28;20030;-47
2023/05/21 01:09:13;;;;;;;18.35;13.27;;;16.60;99.90;;;;;;5017770;28;20030;-48
2023/05/21 01:11:50;;;;;;;16.25;13.15;;;16.60;99.90;;;;;;5014012;28;20022;-49
2023/05/21 01:14:17;;;;;;;20.13;14.10;;;16.50;99.90;;;;;;5031364;28;20586;-47
2023/05/21 01:16:52;;;;;;;19.33;13.63;;;16.50;99.90;;;;;;5018950;28;20116;-50
2023/05/21 01:19:20;;;;;;;24.73;13.10;;;16.50;99.90;;;;;;5025702;28;20459;-52
2023/05/21 01:21:50;;;;;;;24.02;14.00;;;16.50;99.90;;;;;;5024028;28;20117;-49
2023/05/21 01:24:16;;;;;;;21.77;12.30;;;16.40;99.90;;;;;;5014592;28;20407;-48
2023/05/21 01:26:43;;;;;;;18.73;13.50;;;16.40;99.90;;;;;;5030845;28;20035;-50
2023/05/21 01:29:11;;;;;;;20.67;14.73;;;16.40;99.90;;;;;;5028129;28;20502;-48
2023/05/21 01:32:05;;;;;;;19.63;13.75;;;16.30;99.90;;;;;;5042583;28;20032;-49
2023/05/21 01:34:44;;;;;;;20.50;13.40;;;16.30;99.90;;;;;;5036721;28;20033;-48
2023/05/21 01:37:28;;;;;;;21.02;14.05;;;16.40;99.90;;;;;;5009191;28;20040;-49
2023/05/21 01:40:09;;;;;;;18.40;13.23;;;16.40;99.90;;;;;;5033241;28;20113;-49
2023/05/21 01:42:37;;;;;;;22.52;14.60;;;16.40;99.90;;;;;;5032193;28;20026;-49
2023/05/21 01:45:05;;;;;;;19.67;13.90;;;16.30;99.90;;;;;;5033332;28;20478;-51
2023/05/21 01:47:31;;;;;;;18.60;13.85;;;16.30;99.90;;;;;;5051890;28;20048;-50
2023/05/21 01:50:00;;;;;;;18.90;14.70;;;16.40;99.90;;;;;;5033052;28;20479;-50
2023/05/21 01:52:25;;;;;;;16.58;14.02;;;16.30;99.90;;;;;;5042227;28;20036;-50
2023/05/21 01:54:53;;;;;;;19.92;14.93;;;16.30;99.90;;;;;;5020557;28;20037;-51
2023/05/21 01:57:19;;;;;;;22.30;15.57;;;16.40;99.90;;;;;;5031587;28;20021;-51
2023/05/21 01:59:46;;;;;;;22.83;14.38;;;16.30;99.90;;;;;;5047788;28;20511;-50
2023/05/21 02:02:12;;;;;;;19.38;14.93;;;16.30;99.90;;;;;;5048988;28;20071;-53
2023/05/21 02:04:40;;;;;;;25.80;15.30;;;16.30;99.90;;;;;;5051430;28;20483;-50
2023/05/21 02:07:06;;;;;;;22.90;16.35;;;16.30;99.90;;;;;;5026981;28;20407;-52
2023/05/21 02:09:31;;;;;;;20.33;14.80;;;16.30;99.90;;;;;;5044148;28;20032;-47
2023/05/21 02:11:57;;;;;;;21.02;15.70;;;16.30;99.90;;;;;;5045621;28;20028;-47
2023/05/21 02:14:24;;;;;;;21.38;16.45;;;16.30;99.90;;;;;;5031929;28;20034;-48
2023/05/21 02:16:51;;;;;;;20.23;16.35;;;16.30;99.90;;;;;;5045936;28;20208;-50
2023/05/21 02:19:17;;;;;;;;;;;16.30;99.90;;;;;;5049846;28;20079;-49
2023/05/21 02:21:42;;;;;;;22.13;16.90;;;16.30;99.90;;;;;;5040301;28;19904;-49
2023/05/21 02:24:08;;;;;;;20.50;16.98;;;16.30;99.90;;;;;;5051428;28;20024;-48
2023/05/21 02:26:34;;;;;;;20.27;16.00;;;16.30;99.90;;;;;;5051408;28;20033;-48
2023/05/21 02:29:00;;;;;;;25.33;16.33;;;16.30;99.90;;;;;;5051106;28;20029;-51
2023/05/21 02:31:25;;;;;;;27.95;16.33;;;16.30;99.90;;;;;;5051555;28;20086;-47
2023/05/21 02:33:51;;;;;;;18.02;14.70;;;16.30;99.90;;;;;;5051477;28;20041;-49
2023/05/21 02:36:17;;;;;;;26.65;17.20;;;16.30;99.90;;;;;;5051349;28;20365;-50
2023/05/21 02:38:44;;;;;;;19.15;16.58;;;16.20;99.90;;;;;;5050975;28;20032;-47
2023/05/21 02:41:12;;;;;;;20.87;15.93;;;16.20;99.90;;;;;;5051304;28;20076;-47
2023/05/21 02:43:38;;;;;;;22.65;15.80;;;16.20;99.90;;;;;;5050224;28;20033;-50
2023/05/21 02:46:06;;;;;;;17.95;15.43;;;16.20;99.90;;;;;;5050570;28;20048;-50
2023/05/21 02:48:32;;;;;;;21.13;16.58;;;16.20;99.90;;;;;;5033168;28;20450;-52
2023/05/21 02:50:58;;;;;;;19.77;16.83;;;16.20;99.90;;;;;;5045754;28;20033;-52
2023/05/21 02:53:23;;;;;;;21.73;16.17;;;16.20;99.90;;;;;;5031259;28;20447;-51
2023/05/21 02:55:49;;;;;;;19.98;15.75;;;16.20;99.90;;;;;;5032258;28;20064;-52
2023/05/21 02:58:15;;;;;;;24.65;16.88;;;16.20;99.90;;;;;;5046263;28;20056;-50
2023/05/21 03:00:41;;;;;;;22.05;15.85;;;16.20;99.90;;;;;;5034518;28;20028;-51
2023/05/21 03:03:06;;;;;;;24.00;16.17;;;16.20;99.90;;;;;;5049579;28;20103;-50
2023/05/21 03:05:32;;;;;;;20.08;16.25;;;16.20;99.90;;;;;;5054441;28;20025;-46
2023/05/21 03:07:58;;;;;;;20.23;15.40;;;16.20;99.90;;;;;;5054748;28;20395;-50
2023/05/21 03:10:24;;;;;;;20.52;15.35;;;16.20;99.90;;;;;;5050752;28;20028;-50
2023/05/21 03:12:49;;;;;;;21.70;15.38;;;16.20;99.90;;;;;;5041286;28;20056;-48
2023/05/21 03:15:15;;;;;;;22.90;16.92;;;16.10;99.90;;;;;;5052783;28;20479;-50
2023/05/21 03:17:43;;;;;;;23.10;17.27;;;16.00;99.90;;;;;;5017959;28;20087;-51
2023/05/21 03:20:15;;;;;;;20.15;15.70;;;15.90;99.90;;;;;;5048659;28;20033;-49
2023/05/21 03:22:42;;;;;;;18.40;16.35;;;15.90;99.90;;;;;;5041722;28;20025;-48
2023/05/21 03:25:09;;;;;;;19.40;16.48;;;15.90;99.90;;;;;;5036851;28;20079;-49
2023/05/21 03:27:35;;;;;;;22.65;16.35;;;15.90;99.90;;;;;;5054436;28;20212;-47
2023/05/21 03:30:01;;;;;;;20.77;17.23;;;16.00;99.90;;;;;;5036618;28;20115;-52
2023/05/21 03:32:27;;;;;;;24.08;16.48;;;15.90;99.90;;;;;;5054528;28;20071;-51
2023/05/21 03:34:52;;;;;;;21.20;16.63;;;15.90;99.90;;;;;;5036754;28;20112;-49
2023/05/21 03:37:18;;;;;;;22.77;18.13;;;15.90;99.90;;;;;;5054352;28;20387;-46
2023/05/21 03:39:44;;;;;;;28.60;20.30;;;15.90;99.90;;;;;;5054315;28;20067;-47
2023/05/21 03:42:09;;;;;;;23.92;17.88;;;15.90;99.90;;;;;;5054316;28;20056;-48
2023/05/21 03:44:35;;;;;;;24.08;17.45;;;15.90;99.90;;;;;;5054357;28;20032;-46
2023/05/21 03:47:01;;;;;;;26.02;16.90;;;15.90;99.90;;;;;;5054212;28;20021;-48
2023/05/21 03:49:26;;;;;;;26.50;18.05;;;15.90;99.90;;;;;;5036122;28;20526;-50
2023/05/21 03:51:52;;;;;;;23.45;17.80;;;16.00;99.90;;;;;;5051367;28;20422;-49
2023/05/21 03:54:18;;;;;;;25.43;19.20;;;16.00;99.90;;;;;;5034341;28;20495;-48
2023/05/21 03:56:44;;;;;;;23.90;18.02;;;16.00;99.90;;;;;;5035130;28;20029;-50
2023/05/21 03:59:09;;;;;;;25.42;19.48;;;16.00;99.90;;;;;;5033883;28;20024;-49
2023/05/21 04:01:35;;;;;;;23.95;18.45;;;16.00;99.90;;;;;;5036692;28;20105;-48
2023/05/21 04:04:01;;;;;;;25.30;18.75;;;16.00;99.90;;;;;;5034132;28;20029;-52
2023/05/21 04:06:27;;;;;;;22.00;18.38;;;16.10;99.90;;;;;;5053027;28;20033;-48
2023/05/21 04:08:52;;;;;;;25.58;18.02;;;16.10;99.90;;;;;;5053537;28;20025;-52
2023/05/21 04:11:18;;;;;;;26.23;19.20;;;16.10;99.90;;;;;;5048487;28;20059;-51
2023/05/21 04:13:44;;;;;;;23.17;16.90;;;16.10;99.90;;;;;;5045976;28;20458;-51
2023/05/21 04:16:13;;;;;;;26.08;18.95;;;16.10;99.90;;;;;;5041900;28;20503;-46
2023/05/21 04:18:40;;;;;;;23.73;17.95;;;16.10;99.90;;;;;;5053108;28;20037;-46
2023/05/21 04:21:06;;;;;;;26.55;18.20;;;16.10;99.90;;;;;;5047194;28;20030;-52
2023/05/21 04:23:32;;;;;;;25.77;17.67;;;16.10;99.90;;;;;;5041561;28;20148;-48
2023/05/21 04:25:58;;;;;;;26.08;17.50;;;16.10;99.90;;;;;;5043675;28;20310;-48
2023/05/21 04:28:27;;;;;;;23.80;18.27;;;16.10;99.90;;;;;;5045159;28;20035;-49
2023/05/21 04:30:55;;;;;;;23.95;18.55;;;16.10;99.90;;;;;;5032612;28;20026;-51
2023/05/21 04:33:24;;;;;;;23.77;17.63;;;16.10;99.90;;;;;;5039521;28;20394;-47
2023/05/21 04:35:50;;;;;;;31.08;18.83;;;16.20;99.90;;;;;;5052251;28;20100;-54
2023/05/21 04:38:19;;;;;;;31.15;18.00;;;16.10;99.90;;;;;;5052128;28;20082;-50
2023/05/21 04:40:51;;;;;;;26.52;18.48;;;16.00;99.90;;;;;;5052390;28;20028;-53
2023/05/21 04:43:24;;;;;;;23.58;17.42;;;16.00;99.90;;;;;;5052496;28;20134;-55
2023/05/21 04:45:50;;;;;;;24.60;18.45;;;16.00;99.90;;;;;;5052054;28;20434;-49
2023/05/21 04:48:17;;;;;;;25.80;18.15;;;15.90;99.90;;;;;;5051926;28;20036;-50
2023/05/21 04:50:43;;;;;;;26.42;19.10;;;15.90;99.90;;;;;;5051933;28;20021;-53
2023/05/21 04:53:09;;;;;;;33.92;20.90;;;15.90;99.90;;;;;;5052079;28;20372;-51
2023/05/21 04:55:38;;;;;;;22.67;17.35;;;15.90;99.90;;;;;;5034136;28;20025;-50
2023/05/21 04:58:05;;;;;;;26.33;18.77;;;15.90;99.90;;;;;;5051669;28;20017;-53
2023/05/21 05:00:32;;;;;;;27.50;18.95;;;15.90;99.90;;;;;;5051883;28;20099;-48
2023/05/21 05:02:58;;;;;;;28.85;18.38;;;15.90;99.90;;;;;;5051854;28;20025;-54
2023/05/21 05:05:24;;;;;;;26.77;19.25;;;16.00;99.90;;;;;;5052045;28;20024;-48
2023/05/21 05:07:50;;;;;;;23.00;18.33;;;16.00;99.90;;;;;;5051662;28;20518;-48
2023/05/21 05:10:16;;;;;;;25.67;17.52;;;16.00;99.90;;;;;;5051766;28;20096;-48
2023/05/21 05:12:41;;;;;;;29.15;17.75;;;16.10;99.90;;;;;;5051714;28;20051;-51
2023/05/21 05:15:07;;;;;;;30.15;17.50;;;16.20;99.90;;;;;;5033783;28;20406;-50
2023/05/21 05:17:34;;;;;;;22.00;17.00;;;16.20;99.90;;;;;;5051380;28;20033;-50
2023/05/21 05:20:00;;;;;;;26.45;17.27;;;16.30;99.90;;;;;;5051779;28;20025;-52
2023/05/21 05:22:26;;;;;;;22.65;18.25;;;16.30;99.90;;;;;;5051549;28;20044;-55
2023/05/21 05:24:51;;;;;;;26.73;17.80;;;16.30;99.90;;;;;;5051679;28;20071;-50
2023/05/21 05:27:17;;;;;;;24.10;17.15;;;16.30;99.90;;;;;;5050858;28;20086;-49
2023/05/21 05:29:44;;;;;;;25.58;15.75;;;16.30;99.90;;;;;;4998854;28;1317030;-49
2023/05/21 05:32:09;;;;;;;20.75;15.52;;;16.40;99.90;;;;;;5029669;28;20391;-54
2023/05/21 05:34:36;;;;;;;19.95;13.63;;;16.40;99.90;;;;;;5033026;28;20033;-54
2023/05/21 05:37:03;;;;;;;19.92;15.38;;;16.40;99.90;;;;;;5050512;28;20021;-54
2023/05/21 05:39:28;;;;;;;22.33;16.27;;;16.50;99.90;;;;;;5051846;28;20021;-54
2023/05/21 05:41:54;;;;;;;24.52;14.85;;;16.50;99.90;;;;;;5042496;28;20407;-48
2023/05/21 05:44:20;;;;;;;21.95;14.85;;;16.50;99.90;;;;;;5033129;28;20442;-55
2023/05/21 05:46:45;;;;;;;18.75;14.27;;;16.50;99.90;;;;;;5034692;28;20037;-51
2023/05/21 05:49:12;;;;;;;22.65;14.75;;;16.60;99.90;;;;;;5036668;28;20116;-48
2023/05/21 05:51:39;;;;;;;25.27;16.10;;;16.60;99.90;;;;;;5044526;28;20065;-54
2023/05/21 05:54:04;;;;;;;19.23;15.10;;;16.60;99.90;;;;;;5051541;28;20033;-49
2023/05/21 05:56:30;;;;;;;19.80;14.77;;;16.60;99.90;;;;;;5044386;28;20040;-48
2023/05/21 05:58:57;;;;;;;21.60;14.50;;;16.60;99.90;;;;;;5032210;28;20026;-52
2023/05/21 06:01:23;;;;;;;20.70;15.13;;;16.60;99.90;;;;;;5043175;28;20033;-53
2023/05/21 06:03:49;;;;;;;21.53;14.60;;;16.60;99.90;;;;;;5051958;28;20082;-53
2023/05/21 06:06:15;;;;;;;17.85;13.70;;;16.60;99.90;;;;;;5032233;28;20443;-45
2023/05/21 06:08:41;;;;;;;19.52;13.25;;;16.70;99.90;;;;;;5048719;28;20021;-47
2023/05/21 06:11:08;;;;;;;19.98;13.48;;;16.70;99.90;;;;;;5050143;28;20083;-45
2023/05/21 06:13:34;;;;;;;17.63;13.23;;;16.70;99.90;;;;;;5032557;28;20068;-45
2023/05/21 06:15:59;;;;;;;17.38;13.10;;;16.70;99.90;;;;;;5036732;28;20065;-46
2023/05/21 06:18:25;;;;;;;18.05;13.77;;;16.70;99.90;;;;;;5037251;28;20104;-47
2023/05/21 06:20:51;;;;;;;14.68;12.10;;;16.70;99.90;;;;;;5039333;28;20479;-45
2023/05/21 06:23:17;;;;;;;18.42;14.35;;;16.70;99.90;;;;;;5044061;28;20017;-45
2023/05/21 06:25:42;;;;;;;16.77;12.38;;;16.70;99.90;;;;;;5033848;28;20032;-48
2023/05/21 06:28:08;;;;;;;17.25;11.85;;;16.70;99.90;;;;;;5015718;28;20420;-45
2023/05/21 06:30:34;;;;;;;15.65;12.57;;;16.70;99.90;;;;;;5033093;28;20092;-46
2023/05/21 06:32:59;;;;;;;20.63;13.20;;;16.60;99.90;;;;;;5043565;28;20377;-45
2023/05/21 06:35:25;;;;;;;17.10;12.10;;;16.70;99.90;;;;;;5048667;28;20029;-45
2023/05/21 06:37:51;;;;;;;16.65;11.93;;;16.70;99.90;;;;;;5030019;28;20033;-46
2023/05/21 06:40:17;;;;;;;18.55;11.48;;;16.70;99.90;;;;;;5048724;28;20024;-50
2023/05/21 06:42:42;;;;;;;25.23;13.95;;;16.70;99.90;;;;;;5041786;28;20067;-46
2023/05/21 06:45:08;;;;;;;17.27;11.65;;;16.70;99.90;;;;;;5022032;28;20118;-47
2023/05/21 06:47:34;;;;;;;17.48;12.88;;;16.70;99.90;;;;;;5047129;28;20048;-45
2023/05/21 06:50:00;;;;;;;18.38;12.70;;;16.70;99.90;;;;;;5051694;28;20083;-46
2023/05/21 06:52:26;;;;;;;16.63;12.68;;;16.70;99.90;;;;;;5043948;28;20578;-47
2023/05/21 06:54:51;;;;;;;15.57;12.75;;;16.70;99.90;;;;;;5036502;28;20116;-46
2023/05/21 06:57:17;;;;;;;16.98;12.07;;;16.80;99.90;;;;;;5043968;28;20391;-48
2023/05/21 06:59:43;;;;;;;16.95;13.15;;;16.80;99.90;;;;;;5019021;28;20140;-48
2023/05/21 07:02:09;;;;;;;18.55;12.25;;;16.80;99.90;;;;;;5042499;28;20017;-49
2023/05/21 07:04:35;;;;;;;18.90;12.93;;;16.90;99.90;;;;;;5051000;28;20024;-45
2023/05/21 07:07:03;;;;;;;15.65;12.52;;;16.90;99.90;;;;;;5019749;28;20028;-46
2023/05/21 07:09:29;;;;;;;17.77;13.45;;;16.90;99.90;;;;;;5022352;28;20041;-45
2023/05/21 07:11:55;;;;;;;17.23;13.27;;;16.90;99.90;;;;;;5043889;28;20121;-51
2023/05/21 07:14:21;;;;;;;17.67;13.05;;;16.90;99.90;;;;;;5039571;28;20108;-48
2023/05/21 07:16:46;;;;;;;18.75;12.43;;;16.90;99.90;;;;;;5049373;28;20107;-47
2023/05/21 07:19:13;;;;;;;17.77;12.63;;;16.90;99.90;;;;;;5051943;28;20537;-46
2023/05/21 07:21:39;;;;;;;15.88;11.95;;;17.00;99.90;;;;;;5048975;28;20033;-49
2023/05/21 07:24:05;;;;;;;17.73;12.45;;;17.00;99.90;;;;;;5059592;28;20043;-45
2023/05/21 07:26:31;;;;;;;13.90;11.02;;;17.10;99.90;;;;;;5056907;28;20103;-48
2023/05/21 07:28:56;;;;;;;17.27;12.35;;;17.20;99.90;;;;;;5040803;28;20079;-48
2023/05/21 07:31:22;;;;;;;14.48;11.02;;;17.30;99.90;;;;;;5056074;28;20037;-46
2023/05/21 07:33:48;;;;;;;12.80;10.65;;;17.50;99.90;;;;;;5043616;28;20025;-51
2023/05/21 07:36:13;;;;;;;14.80;10.25;;;17.60;99.90;;;;;;5046952;28;20029;-47
2023/05/21 07:38:39;;;;;;;14.98;10.52;;;17.80;99.90;;;;;;5045377;28;20021;-47
2023/05/21 07:41:05;;;;;;;12.23;10.38;;;17.90;99.90;;;;;;5051483;28;20018;-46
2023/05/21 07:43:30;;;;;;;11.75;9.50;;;18.00;99.90;;;;;;5048678;28;20016;-51
2023/05/21 07:45:56;;;;;;;15.73;10.13;;;18.20;99.90;;;;;;5055473;28;20044;-56
2023/05/21 07:48:22;;;;;;;13.07;9.48;;;18.20;99.90;;;;;;5039615;28;20029;-52
2023/05/21 07:50:48;;;;;;;21.33;9.90;;;18.40;99.90;;;;;;5063620;28;21099;-49
2023/05/21 07:53:15;;;;;;;11.73;9.15;;;18.60;99.90;;;;;;5048998;28;20033;-55
2023/05/21 07:55:46;;;;;;;14.43;9.52;;;18.60;99.90;;;;;;5060993;28;20036;-51
2023/05/21 07:58:18;;;;;;;9.75;8.70;;;18.70;99.90;;;;;;5043488;28;20143;-51
2023/05/21 08:00:46;;;;;;;12.95;8.57;;;19.00;99.90;;;;;;5052576;28;20103;-52
2023/05/21 08:03:16;;;;;;;10.45;8.52;;;19.10;99.90;;;;;;5044819;28;20038;-51
2023/05/21 08:05:47;;;;;;;10.65;7.38;;;19.20;99.90;;;;;;5044568;28;20021;-56
2023/05/21 08:08:15;;;;;;;12.20;8.38;;;19.30;99.90;;;;;;5059307;28;20017;-53
2023/05/21 08:10:40;;;;;;;12.70;8.05;;;19.40;99.90;;;;;;5053869;28;20025;-57
2023/05/21 08:13:06;;;;;;;8.38;7.20;;;19.40;99.90;;;;;;5067190;28;20498;-56
2023/05/21 08:15:32;;;;;;;11.25;8.00;;;19.60;99.90;;;;;;5074004;28;20021;-54
2023/05/21 08:17:57;;;;;;;9.45;7.38;;;19.90;99.90;;;;;;5073631;28;20394;-57
2023/05/21 08:20:24;;;;;;;10.63;7.55;;;20.10;99.90;;;;;;5072924;28;20029;-54
2023/05/21 08:22:49;;;;;;;10.17;7.40;;;20.40;99.90;;;;;;5053875;28;20021;-53
2023/05/21 08:25:15;;;;;;;15.25;7.25;;;20.60;99.90;;;;;;5047905;28;20267;-53
2023/05/21 08:27:41;;;;;;;8.60;7.10;;;20.70;99.90;;;;;;5053435;28;20040;-55
2023/05/21 08:30:10;;;;;;;8.60;7.60;;;20.90;99.90;;;;;;5052848;28;20487;-49
2023/05/21 08:32:36;;;;;;;15.90;7.72;;;20.90;99.00;;;;;;5047641;28;20079;-50
2023/05/21 08:35:02;;;;;;;8.32;7.53;;;20.80;98.40;;;;;;5016474;28;20037;-50
2023/05/21 08:37:28;;;;;;;9.63;7.55;;;20.80;98.90;;;;;;5041913;28;20077;-50
2023/05/21 08:39:53;;;;;;;9.88;7.00;;;20.90;99.40;;;;;;5035499;28;20391;-51
2023/05/21 08:42:44;;;;;;;12.35;7.88;;;20.90;98.10;;;;;;5048350;28;20026;-53
2023/05/21 08:45:15;;;;;;;10.55;7.70;;;21.00;96.00;;;;;;5026275;28;20042;-49
2023/05/21 08:47:48;;;;;;;8.88;6.95;;;21.00;96.20;;;;;;5040758;28;20111;-56
2023/05/21 08:50:18;;;;;;;9.95;7.28;;;21.10;99.30;;;;;;5026261;28;20084;-49
2023/05/21 08:52:43;;;;;;;9.80;8.05;;;21.10;96.70;;;;;;5046185;28;20021;-52
2023/05/21 08:55:09;;;;;;;8.75;7.78;;;21.20;94.80;;;;;;5052263;28;20037;-56
2023/05/21 08:57:36;;;;;;;9.18;7.22;;;21.20;94.80;;;;;;5036516;28;20033;-56
2023/05/21 09:00:05;;;;;;;9.98;7.72;;;21.30;94.60;;;;;;5050568;28;20021;-54
2023/05/21 09:02:37;;;;;;;9.48;7.63;;;21.30;94.20;;;;;;5043336;28;20027;-54
2023/05/21 09:05:04;;;;;;;9.90;7.35;;;21.30;94.20;;;;;;5041062;28;20032;-56
2023/05/21 09:07:33;;;;;;;16.45;8.20;;;21.30;94.40;;;;;;5033779;28;20029;-48
2023/05/21 09:10:12;;;;;;;12.55;7.97;;;21.40;94.80;;;;;;5015065;28;20022;-48
2023/05/21 09:12:37;;;;;;;10.65;8.52;;;21.50;93.80;;;;;;5032758;28;20040;-51
2023/05/21 09:15:04;;;;;;;13.45;7.53;;;21.50;95.20;;;;;;5032974;28;20029;-50
2023/05/21 09:17:30;;;;;;;;;;;21.50;94.30;;;;;;5032928;28;20052;-50
2023/05/21 09:20:11;;;;;;;15.18;8.68;;;21.50;94.50;;;;;;5014880;28;20338;-51
2023/05/21 09:22:47;;;;;;;10.50;8.30;;;21.50;95.20;;;;;;5014855;28;20400;-57
2023/05/21 09:25:21;;;;;;;10.63;8.60;;;21.60;92.70;;;;;;5014158;28;20032;-55
2023/05/21 09:27:47;;;;;;;11.38;8.82;;;21.50;93.60;;;;;;5013464;28;20029;-56
2023/05/21 09:30:16;;;;;;;11.65;9.35;;;21.60;94.10;;;;;;5012875;28;20048;-49
2023/05/21 09:32:42;;;;;;;11.20;8.88;;;21.60;93.60;;;;;;5031507;28;20561;-51
2023/05/21 09:35:15;;;;;;;10.00;8.95;;;21.60;94.20;;;;;;5031766;28;20029;-50
2023/05/21 09:37:47;;;;;;;9.30;8.40;;;21.70;91.60;;;;;;5031533;28;20490;-52
2023/05/21 09:40:21;;;;;;;12.25;9.50;;;21.80;92.20;;;;;;5031954;28;20112;-48
2023/05/21 09:42:47;;;;;;;18.58;9.48;;;21.80;92.20;;;;;;5032178;28;20117;-50
2023/05/21 09:45:17;;;;;;;14.60;10.07;;;21.90;92.20;;;;;;5032136;28;20108;-47
2023/05/21 09:47:44;;;;;;;12.32;10.02;;;22.00;90.40;;;;;;5031811;28;20369;-52
2023/05/21 09:50:19;;;;;;;13.65;10.45;;;22.10;92.10;;;;;;5031929;28;20025;-53
2023/05/21 09:52:46;;;;;;;11.30;9.45;;;22.30;92.50;;;;;;5014320;28;20021;-50
2023/05/21 09:55:13;;;;;;;10.35;9.02;;;22.40;91.00;;;;;;5014300;28;20033;-48
2023/05/21 09:57:43;;;;;;;12.32;9.80;;;22.50;88.70;;;;;;5031759;28;20025;-48
2023/05/21 10:00:20;;;;;;;15.07;10.35;;;22.60;90.40;;;;;;5031782;28;20026;-47
2023/05/21 10:02:47;;;;;;;12.32;9.55;;;22.70;82.80;;;;;;5032008;28;20021;-54
2023/05/21 10:05:15;;;;;;;13.18;10.32;;;22.70;81.00;;;;;;5014112;28;20033;-51
2023/05/21 10:07:52;;;;;;;11.45;10.25;;;22.80;86.50;;;;;;5031967;28;20087;-52
2023/05/21 10:10:23;;;;;;;10.82;9.70;;;22.90;77.20;;;;;;5031706;28;20084;-49
2023/05/21 10:13:08;;;;;;;11.93;9.98;;;22.80;77.20;;;;;;5013943;28;20026;-50
2023/05/21 10:15:43;;;;;;;15.18;9.65;;;22.90;79.10;;;;;;5031710;28;20112;-50
2023/05/21 10:18:11;;;;;;;14.23;11.23;;;23.00;78.40;;;;;;5013590;28;20025;-53
2023/05/21 10:20:37;;;;;;;11.25;9.80;;;23.10;79.90;;;;;;5014086;28;20022;-48
2023/05/21 10:23:04;;;;;;;17.40;10.75;;;23.20;82.20;;;;;;5031682;28;20083;-57
2023/05/21 10:25:31;;;;;;;13.38;10.40;;;23.20;80.00;;;;;;5012236;28;20034;-55
2023/05/21 10:27:57;;;;;;;13.15;11.60;;;23.10;78.50;;;;;;5030382;28;20032;-56
2023/05/21 10:30:23;;;;;;;14.52;11.10;;;23.10;78.40;;;;;;5031181;28;20496;-56
2023/05/21 10:32:49;;;;;;;12.25;10.27;;;23.10;80.10;;;;;;5031675;28;20100;-56
2023/05/21 10:35:16;;;;;;;12.48;11.07;;;23.20;80.00;;;;;;5031599;28;20049;-54
2023/05/21 10:37:45;;;;;;;13.07;11.68;;;23.20;77.90;;;;;;5030329;28;20025;-50
2023/05/21 10:40:12;;;;;;;15.35;11.40;;;23.20;77.60;;;;;;5030036;28;20086;-50
2023/05/21 10:43:11;;;;;;;13.82;11.98;;;23.20;76.80;;;;;;5031072;28;20044;-51
2023/05/21 10:45:56;;;;;;;14.65;12.00;;;23.30;76.40;;;;;;5031395;28;20022;-53
2023/05/21 10:48:51;;;;;;;12.65;10.38;;;23.30;78.20;;;;;;5030965;28;20506;-53
2023/05/21 10:51:44;;;;;;;18.10;12.02;;;23.30;75.00;;;;;;5012559;28;20026;-49
2023/05/21 10:54:25;;;;;;;14.70;11.73;;;23.40;77.10;;;;;;5031239;28;20078;-53
2023/05/21 10:57:09;;;;;;;16.63;11.43;;;23.50;76.90;;;;;;5031372;28;20037;-50
2023/05/21 10:59:48;;;;;;;12.40;11.07;;;23.50;76.20;;;;;;5016532;28;20021;-54
2023/05/21 11:02:16;;;;;;;16.63;12.45;;;23.60;73.60;;;;;;5042560;28;20151;-53
2023/05/21 11:04:47;;;;;;;13.27;11.27;;;23.60;75.70;;;;;;5044882;28;20025;-55
2023/05/21 11:07:14;;;;;;;16.48;10.98;;;23.60;75.80;;;;;;5035885;28;20116;-54
2023/05/21 11:09:40;;;;;;;14.98;11.85;;;23.80;75.40;;;;;;5029346;28;20029;-52
2023/05/21 11:12:08;;;;;;;16.63;12.70;;;23.80;74.40;;;;;;5051124;28;20070;-57
2023/05/21 11:14:39;;;;;;;15.55;11.23;;;24.00;74.60;;;;;;5050959;28;20039;-56
2023/05/21 11:17:08;;;;;;;13.13;11.20;;;24.10;73.60;;;;;;5051170;28;20029;-52
2023/05/21 11:19:38;;;;;;;13.40;11.25;;;24.20;72.60;;;;;;5026954;28;20052;-57
2023/05/21 11:22:08;;;;;;;15.05;11.50;;;24.30;71.00;;;;;;5013182;28;20118;-57
2023/05/21 11:24:39;;;;;;;14.95;11.57;;;24.40;72.40;;;;;;5032132;28;20508;-57
2023/05/21 11:27:05;;;;;;;16.92;12.55;;;24.50;71.90;;;;;;5033709;28;20052;-57
2023/05/21 11:29:39;;;;;;;14.05;12.30;;;24.60;71.30;;;;;;5042937;28;20507;-57
2023/05/21 11:32:07;;;;;;;13.82;11.18;;;24.50;70.60;;;;;;5048833;28;20117;-56
2023/05/21 11:34:44;;;;;;;16.42;12.52;;;24.50;69.20;;;;;;5051732;28;20029;-58
2023/05/21 11:39:46;;;;;;;17.88;12.60;;;24.70;72.20;;;;;;5049876;28;20094;-57
2023/05/21 11:42:12;;;;;;;14.45;12.20;;;24.90;72.00;;;;;;5053688;28;20028;-51
2023/05/21 11:44:45;;;;;;;15.37;12.50;;;25.00;68.90;;;;;;5048217;28;20033;-49
2023/05/21 11:47:13;;;;;;;14.50;11.93;;;25.00;69.40;;;;;;5043112;28;20065;-60
2023/05/21 11:49:39;;;;;;;15.32;12.20;;;25.10;69.00;;;;;;5048857;28;20029;-57
2023/05/21 11:52:07;;;;;;;140.60;118.27;;;25.30;69.70;;;;;;5050063;28;20027;-52
2023/05/21 11:54:38;;;;;;;62.33;51.22;;;25.40;66.90;;;;;;5034323;28;20476;-57
2023/05/21 11:57:08;;;;;;;18.77;13.85;;;25.50;67.40;;;;;;5033979;28;20059;-55
2023/05/21 11:59:34;;;;;;;13.57;11.77;;;25.70;67.30;;;;;;5028963;28;20380;-52
2023/05/21 12:02:00;;;;;;;13.23;11.82;;;25.80;66.90;;;;;;5052415;28;20021;-55
2023/05/21 12:04:38;;;;;;;15.07;11.18;;;26.00;67.30;;;;;;5042687;28;20024;-57
2023/05/21 12:07:08;;;;;;;16.15;11.63;;;26.10;68.10;;;;;;5033907;28;20030;-57
2023/05/21 12:09:50;;;;;;;13.88;11.30;;;26.20;65.60;;;;;;5032826;28;20034;-51
2023/05/21 12:12:17;;;;;;;19.10;11.07;;;26.20;64.70;;;;;;5031232;28;20026;-52
2023/05/21 12:14:51;;;;;;;14.15;11.88;;;26.40;66.90;;;;;;5024071;28;20025;-51
2023/05/21 12:17:25;;;;;;;14.05;11.35;;;26.50;64.10;;;;;;5052820;28;20037;-53
2023/05/21 12:19:55;;;;;;;13.13;11.52;;;26.50;63.00;;;;;;5053655;28;20029;-55
2023/05/21 12:22:23;;;;;;;14.57;12.02;;;26.40;63.00;;;;;;5053758;28;20491;-55
2023/05/21 12:24:50;;;;;;;15.07;12.60;;;26.30;66.30;;;;;;5053088;28;20033;-54
2023/05/21 12:27:17;;;;;;;15.50;11.30;;;26.20;64.20;;;;;;5053466;28;20395;-52
2023/05/21 12:29:43;;;;;;;;;;;26.30;64.90;;;;;;5029183;28;20552;-55
2023/05/21 12:32:13;;;;;;;13.20;11.18;;;26.60;64.10;;;;;;5038387;28;19916;-55
2023/05/21 12:34:41;;;;;;;13.32;11.32;;;26.80;65.40;;;;;;5035289;28;20068;-54
2023/05/21 12:37:07;;;;;;;14.55;10.52;;;27.10;65.10;;;;;;5052299;28;20028;-50